createdAt,value
2022-11-16T00:03:18.674Z,30.67
2022-11-16T00:08:21.273Z,31.07
2022-11-16T00:13:24.295Z,28.90
2022-11-16T00:18:27.110Z,27.97
2022-11-16T00:23:29.759Z,27.70
2022-11-16T00:28:32.875Z,29.60
2022-11-16T00:33:35.841Z,28.37
2022-11-16T00:38:38.666Z,28.93
2022-11-16T00:43:41.406Z,24.67
2022-11-16T00:48:44.379Z,25.97
2022-11-16T00:53:47.157Z,26.70
2022-11-16T00:58:50.177Z,28.13
2022-11-16T01:03:53.058Z,29.47
2022-11-16T01:08:55.745Z,27.57
2022-11-16T01:14:01.850Z,27.10
2022-11-16T01:19:05.401Z,28.23
2022-11-16T01:24:08.291Z,28.30
2022-11-16T01:29:11.027Z,27.37
2022-11-16T01:34:18.708Z,26.63
2022-11-16T01:39:21.532Z,27.40
2022-11-16T01:44:34.748Z,27.17
2022-11-16T01:49:58.541Z,29.00
2022-11-16T01:55:06.319Z,28.50
2022-11-16T02:00:26.777Z,28.93
2022-11-16T02:06:00.837Z,30.17
2022-11-16T02:11:18.623Z,29.03
2022-11-16T02:16:35.970Z,28.90
2022-11-16T02:21:56.587Z,30.00
2022-11-16T02:27:23.609Z,29.53
2022-11-16T02:32:28.782Z,31.97
2022-11-16T02:37:39.344Z,31.87
2022-11-16T02:42:46.213Z,31.53
2022-11-16T02:47:52.390Z,29.33
2022-11-16T02:52:55.799Z,31.90
2022-11-16T02:58:06.405Z,29.17
2022-11-16T03:03:09.320Z,31.80
2022-11-16T03:08:30.367Z,31.17
2022-11-16T03:13:37.205Z,30.20
2022-11-16T03:18:41.724Z,28.83
2022-11-16T03:23:45.786Z,28.83
2022-11-16T03:28:57.522Z,28.67
2022-11-16T03:34:05.867Z,31.40
2022-11-16T03:39:24.904Z,32.53
2022-11-16T03:44:28.186Z,32.37
2022-11-16T03:49:31.547Z,31.30
2022-11-16T03:54:34.573Z,31.67
2022-11-16T03:59:37.389Z,29.70
2022-11-16T04:04:58.314Z,32.80
2022-11-16T04:10:18.975Z,32.10
2022-11-16T04:15:39.947Z,32.33
2022-11-16T04:21:02.704Z,30.20
2022-11-16T04:26:08.047Z,29.80
2022-11-16T04:31:30.371Z,29.20
2022-11-16T04:36:57.076Z,30.30
2022-11-16T04:42:14.434Z,27.00
2022-11-16T04:47:18.168Z,26.60
2022-11-16T04:52:22.785Z,26.47
2022-11-16T04:57:26.462Z,26.00
2022-11-16T05:02:30.770Z,24.50
2022-11-16T05:07:34.614Z,21.60
2022-11-16T05:12:42.886Z,22.63
2022-11-16T05:17:46.999Z,20.47
2022-11-16T05:22:56.034Z,21.07
2022-11-16T05:28:00.704Z,18.93
2022-11-16T05:33:05.280Z,19.83
2022-11-16T05:38:12.245Z,16.87
2022-11-16T05:43:19.855Z,18.30
2022-11-16T05:48:45.328Z,16.27
2022-11-16T05:53:52.530Z,15.93
2022-11-16T05:58:58.350Z,15.67
2022-11-16T06:04:02.205Z,18.00
2022-11-16T06:09:07.019Z,17.90
2022-11-16T06:14:11.000Z,19.57
2022-11-16T06:19:14.620Z,22.63
2022-11-16T06:24:17.350Z,21.83
2022-11-16T06:29:20.510Z,21.93
2022-11-16T06:34:22.974Z,20.23
2022-11-16T06:39:25.447Z,21.17
2022-11-16T06:44:28.119Z,21.70
2022-11-16T06:49:35.641Z,19.57
2022-11-16T06:54:43.670Z,20.00
2022-11-16T06:59:46.759Z,20.33
2022-11-16T07:04:49.316Z,19.73
2022-11-16T07:09:51.971Z,21.27
2022-11-16T07:14:55.055Z,19.33
2022-11-16T07:19:59.451Z,19.33
2022-11-16T07:25:02.149Z,19.67
2022-11-16T07:30:05.620Z,16.93
2022-11-16T07:35:24.592Z,16.30
2022-11-16T07:40:26.914Z,17.23
2022-11-16T07:45:29.634Z,17.90
2022-11-16T07:50:38.489Z,19.07
2022-11-16T07:55:40.908Z,18.73
2022-11-16T08:00:44.448Z,19.33
2022-11-16T08:06:02.384Z,17.63
2022-11-16T08:11:07.458Z,17.03
2022-11-16T08:16:20.798Z,16.63
2022-11-16T08:21:26.581Z,16.00
2022-11-16T08:26:29.595Z,16.67
2022-11-16T08:31:38.221Z,13.60
2022-11-16T08:36:48.194Z,13.53
2022-11-16T08:41:51.186Z,14.70
2022-11-16T08:46:53.882Z,17.20
2022-11-16T08:52:16.505Z,17.27
2022-11-16T08:57:19.551Z,16.63
2022-11-16T09:02:27.357Z,26.43
2022-11-16T09:07:29.773Z,22.60
2022-11-16T09:12:32.826Z,13.33
2022-11-16T09:17:35.138Z,12.73
2022-11-16T09:22:37.555Z,14.03
2022-11-16T09:27:40.286Z,12.30
2022-11-16T09:32:42.646Z,11.73
2022-11-16T09:37:45.020Z,11.40
2022-11-16T09:43:23.245Z,10.87
2022-11-16T09:48:26.484Z,12.33
2022-11-16T09:53:38.114Z,13.63
2022-11-16T09:59:16.699Z,13.97
2022-11-16T10:04:43.822Z,11.17
2022-11-16T10:09:46.977Z,12.50
2022-11-16T10:15:17.999Z,21.13
2022-11-16T10:20:55.856Z,14.90
2022-11-16T10:26:21.858Z,12.23
2022-11-16T10:31:51.762Z,12.50
2022-11-16T10:37:03.269Z,13.27
2022-11-16T10:42:11.744Z,13.90
2022-11-16T10:47:21.011Z,11.37
2022-11-16T10:52:23.937Z,12.07
2022-11-16T10:57:46.220Z,15.77
2022-11-16T11:02:48.966Z,12.50
2022-11-16T11:08:12.027Z,14.50
2022-11-16T11:13:14.352Z,12.00
2022-11-16T11:18:16.672Z,14.43
2022-11-16T11:23:25.061Z,17.43
2022-11-16T11:28:33.937Z,16.17
2022-11-16T11:33:49.414Z,17.07
2022-11-16T11:39:01.661Z,11.97
2022-11-16T11:44:17.002Z,10.20
2022-11-16T11:49:32.002Z,10.27
2022-11-16T11:54:45.647Z,10.20
2022-11-16T11:59:51.049Z,25.47
2022-11-16T12:05:22.242Z,12.63
2022-11-16T12:10:51.126Z,9.03
2022-11-16T12:16:12.896Z,10.17
2022-11-16T12:21:20.216Z,8.47
2022-11-16T12:26:31.396Z,10.87
2022-11-16T12:32:13.103Z,10.87
2022-11-16T12:37:39.587Z,9.53
2022-11-16T12:43:03.724Z,12.97
2022-11-16T12:48:32.169Z,9.90
2022-11-16T12:54:08.391Z,10.17
2022-11-16T12:59:36.314Z,10.57
2022-11-16T13:04:47.871Z,12.50
2022-11-16T13:09:59.048Z,9.30
2022-11-16T13:15:03.450Z,9.27
2022-11-16T13:20:30.585Z,11.90
2022-11-16T13:25:45.736Z,9.53
2022-11-16T13:31:16.277Z,8.83
2022-11-16T13:36:46.180Z,13.07
2022-11-16T13:42:07.402Z,15.93
2022-11-16T13:47:32.835Z,15.67
2022-11-16T13:53:46.190Z,35.53
2022-11-16T13:58:20.354Z,26.20
2022-11-16T14:03:22.639Z,26.70
2022-11-16T14:08:24.864Z,15.87
2022-11-16T14:13:30.498Z,36.70
2022-11-16T14:18:37.025Z,19.37
2022-11-16T14:24:04.326Z,17.27
2022-11-16T14:29:06.602Z,25.17
2022-11-16T14:34:32.625Z,22.10
2022-11-16T14:39:41.511Z,26.33
2022-11-16T14:44:44.426Z,19.83
2022-11-16T14:49:47.160Z,46.83
2022-11-16T14:54:57.032Z,12.83
2022-11-16T15:00:23.075Z,21.63
2022-11-16T15:05:33.294Z,24.93
2022-11-16T15:10:35.987Z,18.50
2022-11-16T15:15:38.555Z,16.87
2022-11-16T15:20:49.519Z,14.03
2022-11-16T15:25:54.530Z,16.50
2022-11-16T15:31:07.180Z,21.03
2022-11-16T15:36:38.037Z,20.80
2022-11-16T15:41:40.907Z,32.43
2022-11-16T15:46:47.223Z,28.23
2022-11-16T15:51:49.568Z,19.23
2022-11-16T15:56:54.715Z,17.23
2022-11-16T16:01:57.355Z,17.67
2022-11-16T16:07:00.973Z,17.87
2022-11-16T16:12:12.360Z,17.80
2022-11-16T16:17:26.839Z,21.13
2022-11-16T16:22:38.337Z,24.47
2022-11-16T16:27:41.282Z,27.37
2022-11-16T16:32:51.493Z,20.00
2022-11-16T16:38:01.358Z,24.13
2022-11-16T16:43:03.655Z,16.73
2022-11-16T16:48:07.330Z,30.07
2022-11-16T16:53:13.668Z,36.33
2022-11-16T16:58:16.429Z,23.50
2022-11-16T17:03:18.817Z,28.27
2022-11-16T17:08:21.127Z,27.93
2022-11-16T17:13:23.395Z,21.73
2022-11-16T17:18:26.276Z,23.10
2022-11-16T17:23:29.338Z,18.13
2022-11-16T17:28:31.785Z,21.23
2022-11-16T17:33:43.863Z,20.03
2022-11-16T17:38:46.413Z,25.37
2022-11-16T17:43:51.671Z,16.23
2022-11-16T17:48:54.413Z,14.70
2022-11-16T17:53:57.054Z,13.10
2022-11-16T17:58:59.620Z,12.70
2022-11-16T18:04:02.611Z,14.97
2022-11-16T18:09:04.924Z,11.33
2022-11-16T18:14:07.460Z,11.53
2022-11-16T18:19:11.913Z,9.90
2022-11-16T18:24:14.504Z,8.63
2022-11-16T18:29:19.254Z,10.10
2022-11-16T18:34:21.539Z,10.93
2022-11-16T18:39:23.890Z,10.93
2022-11-16T18:44:26.389Z,9.27
2022-11-16T18:49:29.313Z,12.07
2022-11-16T18:54:31.706Z,11.50
2022-11-16T18:59:34.229Z,9.43
2022-11-16T19:04:36.850Z,9.47
2022-11-16T19:09:39.410Z,9.87
2022-11-16T19:14:41.834Z,10.47
2022-11-16T19:19:44.157Z,8.73
2022-11-16T19:24:46.478Z,9.67
2022-11-16T19:29:48.823Z,11.77
2022-11-16T19:34:51.251Z,9.33
2022-11-16T19:39:53.553Z,10.50
2022-11-16T19:44:55.916Z,10.03
2022-11-16T19:49:58.374Z,9.77
2022-11-16T19:55:00.685Z,14.60
2022-11-16T20:00:03.983Z,12.87
2022-11-16T20:05:07.857Z,18.43
2022-11-16T20:10:10.241Z,15.37
2022-11-16T20:15:12.575Z,38.63
2022-11-16T20:20:14.984Z,17.93
2022-11-16T20:25:17.341Z,12.97
2022-11-16T20:30:19.746Z,13.93
2022-11-16T20:35:22.076Z,13.60
2022-11-16T20:40:25.140Z,12.53
2022-11-16T20:45:27.426Z,10.67
2022-11-16T20:50:30.074Z,14.53
2022-11-16T20:55:32.584Z,11.23
2022-11-16T21:00:34.886Z,11.50
2022-11-16T21:05:44.625Z,11.70
2022-11-16T21:10:48.382Z,13.47
2022-11-16T21:15:58.557Z,12.10
2022-11-16T21:21:06.631Z,11.50
2022-11-16T21:26:13.176Z,12.03
2022-11-16T21:31:25.652Z,12.27
2022-11-16T21:36:29.992Z,14.10
2022-11-16T21:41:32.289Z,11.67
2022-11-16T21:46:35.008Z,11.87
2022-11-16T21:51:37.677Z,11.83
2022-11-16T21:56:40.000Z,12.43
2022-11-16T22:02:00.461Z,12.30
2022-11-16T22:07:21.445Z,12.80
2022-11-16T22:17:49.143Z,12.40
2022-11-16T22:22:51.802Z,13.10
2022-11-16T22:33:17.130Z,14.00
2022-11-16T22:38:20.793Z,13.57
2022-11-16T22:43:28.406Z,17.03
2022-11-16T22:48:36.953Z,15.33
2022-11-16T22:53:39.893Z,18.20
2022-11-16T22:58:42.556Z,15.77
2022-11-16T23:03:45.885Z,16.50
2022-11-16T23:08:48.702Z,14.20
2022-11-16T23:14:11.412Z,14.50
2022-11-16T23:19:34.774Z,17.40
2022-11-16T23:24:55.757Z,15.60
2022-11-16T23:30:07.850Z,14.13
2022-11-16T23:35:15.093Z,13.53
2022-11-16T23:40:17.990Z,14.03
2022-11-16T23:45:20.680Z,14.03
2022-11-16T23:50:23.460Z,13.90
2022-11-16T23:55:27.150Z,14.43
